CYYZ

Lester B Pearson International Airport

Toronto, , Canada
METAR CYYZ 231400Z 30009KT 15SM SKC 20/10 A3005 RMK SLP179 DENSITY ALT 1100FT
Observed Flight Rules
May-23 @ 14:00 UTC (an hour ago) Visual Flight Rules
Wind Visibility Clouds
300° at 9 knots 15 miles
  • Clear skies
Temperatures Readings
Current 20°C / 68°F
Dewpoint 10°C / 50°F
Humidity 53%
Altimeter 30.05" Hg
Pressure 1017.9 hPa
Elevation 173
METAR CYYZ 231400Z 30009KT 15SM SKC 20/10 A3005 RMK SLP179 DENSITY ALT 1100FT
Observed Flight Rules
May-23 @ 14:00 UTC
(an hour ago)
VFR
Wind Visibility
300° at 9 knots 15 miles
Clouds
  • Clear skies
Temperature Dewpoint
20°C / 68°F 10°C / 50°F
Humidity Altimeter Pressure
53% 30.05" Hg 1017.9 hPa